Guion, Arkansas
Current Conditions -  °F | °C
As of 4:35 AM on Thursday 27 Nov 2014 (Local Time) from KBVX Reporting Station
Overcast Overcast  
Wind Chill: 29°   Ceiling: 3200
Heat Index: 37°   Visibility: 10mi
Dew Point: 25°   Wind: 14mph
Humidity: 60%   Direction: 320°NW
Pressure: 30.4"   Gusts: 22mph
Location:  35.93°N, 91.94°W
Report Text: KBVX 271035Z AUTO 32012G19KT 260V060 10SM OVC032 03/M04 A3040 RMK AO1
Loading
Personal Weather Stations






























Interactive Weather Map New forecast layout! Learn more

10-Day Weather Forecast

Advertisements
Track Severe Weather on mobile